sensor_id;sensor_type;location;lat;lon;timestamp;P1;durP1;ratioP1;P2;durP2;ratioP2
16531;SDS011;66872;63.142;14.482;2023-11-21T00:00:12;0.80;;;0.80;;
16531;SDS011;66872;63.142;14.482;2023-11-21T00:02:40;1.00;;;0.90;;
16531;SDS011;66872;63.142;14.482;2023-11-21T00:05:09;0.80;;;0.80;;
16531;SDS011;66872;63.142;14.482;2023-11-21T00:07:37;0.77;;;0.77;;
16531;SDS011;66872;63.142;14.482;2023-11-21T00:10:03;0.50;;;0.50;;
16531;SDS011;66872;63.142;14.482;2023-11-21T00:12:30;0.80;;;0.80;;
16531;SDS011;66872;63.142;14.482;2023-11-21T00:14:56;0.70;;;0.70;;
16531;SDS011;66872;63.142;14.482;2023-11-21T00:17:22;0.73;;;0.73;;
16531;SDS011;66872;63.142;14.482;2023-11-21T00:19:49;1.17;;;1.00;;
16531;SDS011;66872;63.142;14.482;2023-11-21T00:22:17;0.93;;;0.90;;
16531;SDS011;66872;63.142;14.482;2023-11-21T00:24:43;0.80;;;0.80;;
16531;SDS011;66872;63.142;14.482;2023-11-21T00:27:08;0.87;;;0.87;;
16531;SDS011;66872;63.142;14.482;2023-11-21T00:29:34;0.93;;;0.83;;
16531;SDS011;66872;63.142;14.482;2023-11-21T00:32:00;0.97;;;0.90;;
16531;SDS011;66872;63.142;14.482;2023-11-21T00:34:25;0.70;;;0.70;;
16531;SDS011;66872;63.142;14.482;2023-11-21T00:36:51;0.87;;;0.80;;
16531;SDS011;66872;63.142;14.482;2023-11-21T00:39:17;0.70;;;0.70;;
16531;SDS011;66872;63.142;14.482;2023-11-21T00:41:43;0.97;;;0.90;;
16531;SDS011;66872;63.142;14.482;2023-11-21T00:44:10;0.70;;;0.70;;
16531;SDS011;66872;63.142;14.482;2023-11-21T00:46:35;0.90;;;0.90;;
16531;SDS011;66872;63.142;14.482;2023-11-21T00:49:02;0.70;;;0.70;;
16531;SDS011;66872;63.142;14.482;2023-11-21T00:51:29;0.77;;;0.77;;
16531;SDS011;66872;63.142;14.482;2023-11-21T00:53:55;0.57;;;0.57;;
16531;SDS011;66872;63.142;14.482;2023-11-21T00:56:21;0.80;;;0.80;;
16531;SDS011;66872;63.142;14.482;2023-11-21T00:58:47;0.80;;;0.80;;
16531;SDS011;66872;63.142;14.482;2023-11-21T01:01:17;1.00;;;0.90;;
16531;SDS011;66872;63.142;14.482;2023-11-21T01:03:46;0.80;;;0.80;;
16531;SDS011;66872;63.142;14.482;2023-11-21T01:06:12;0.67;;;0.67;;
16531;SDS011;66872;63.142;14.482;2023-11-21T01:08:38;0.60;;;0.60;;
16531;SDS011;66872;63.142;14.482;2023-11-21T01:11:04;0.70;;;0.70;;
16531;SDS011;66872;63.142;14.482;2023-11-21T01:13:32;1.20;;;0.97;;
16531;SDS011;66872;63.142;14.482;2023-11-21T01:15:58;0.60;;;0.60;;
16531;SDS011;66872;63.142;14.482;2023-11-21T01:18:24;0.80;;;0.80;;
16531;SDS011;66872;63.142;14.482;2023-11-21T01:20:50;0.93;;;0.73;;
16531;SDS011;66872;63.142;14.482;2023-11-21T01:23:18;0.80;;;0.80;;
16531;SDS011;66872;63.142;14.482;2023-11-21T01:25:43;0.90;;;0.90;;
16531;SDS011;66872;63.142;14.482;2023-11-21T01:28:09;0.93;;;0.90;;
16531;SDS011;66872;63.142;14.482;2023-11-21T01:30:35;0.70;;;0.70;;
16531;SDS011;66872;63.142;14.482;2023-11-21T01:33:00;0.70;;;0.60;;
16531;SDS011;66872;63.142;14.482;2023-11-21T01:35:26;0.70;;;0.70;;
16531;SDS011;66872;63.142;14.482;2023-11-21T01:37:52;0.83;;;0.80;;
16531;SDS011;66872;63.142;14.482;2023-11-21T01:40:18;0.80;;;0.70;;
16531;SDS011;66872;63.142;14.482;2023-11-21T01:42:44;0.83;;;0.83;;
16531;SDS011;66872;63.142;14.482;2023-11-21T01:45:11;1.23;;;0.90;;
16531;SDS011;66872;63.142;14.482;2023-11-21T01:47:37;0.77;;;0.77;;
16531;SDS011;66872;63.142;14.482;2023-11-21T01:50:04;1.00;;;0.90;;
16531;SDS011;66872;63.142;14.482;2023-11-21T01:52:33;0.60;;;0.60;;
16531;SDS011;66872;63.142;14.482;2023-11-21T01:55:00;0.80;;;0.80;;
16531;SDS011;66872;63.142;14.482;2023-11-21T01:57:27;0.93;;;0.80;;
16531;SDS011;66872;63.142;14.482;2023-11-21T01:59:54;0.70;;;0.70;;
16531;SDS011;66872;63.142;14.482;2023-11-21T02:02:19;1.00;;;1.00;;
16531;SDS011;66872;63.142;14.482;2023-11-21T02:04:45;1.00;;;0.90;;
16531;SDS011;66872;63.142;14.482;2023-11-21T02:07:11;0.80;;;0.80;;
16531;SDS011;66872;63.142;14.482;2023-11-21T02:09:37;0.80;;;0.80;;
16531;SDS011;66872;63.142;14.482;2023-11-21T02:12:07;0.70;;;0.70;;
16531;SDS011;66872;63.142;14.482;2023-11-21T02:14:35;0.90;;;0.90;;
16531;SDS011;66872;63.142;14.482;2023-11-21T02:17:01;0.80;;;0.80;;
16531;SDS011;66872;63.142;14.482;2023-11-21T02:19:28;1.10;;;1.00;;
16531;SDS011;66872;63.142;14.482;2023-11-21T02:21:56;1.33;;;0.80;;
16531;SDS011;66872;63.142;14.482;2023-11-21T02:24:31;1.50;;;0.90;;
16531;SDS011;66872;63.142;14.482;2023-11-21T02:26:57;0.80;;;0.70;;
16531;SDS011;66872;63.142;14.482;2023-11-21T02:29:23;1.17;;;0.97;;
16531;SDS011;66872;63.142;14.482;2023-11-21T02:31:53;0.90;;;0.87;;
16531;SDS011;66872;63.142;14.482;2023-11-21T02:34:19;0.80;;;0.80;;
16531;SDS011;66872;63.142;14.482;2023-11-21T02:36:45;0.87;;;0.87;;
16531;SDS011;66872;63.142;14.482;2023-11-21T02:39:14;0.80;;;0.80;;
16531;SDS011;66872;63.142;14.482;2023-11-21T02:41:40;1.00;;;0.90;;
16531;SDS011;66872;63.142;14.482;2023-11-21T02:44:06;1.53;;;1.00;;
16531;SDS011;66872;63.142;14.482;2023-11-21T02:46:32;1.20;;;1.10;;
16531;SDS011;66872;63.142;14.482;2023-11-21T02:49:05;1.10;;;1.00;;
16531;SDS011;66872;63.142;14.482;2023-11-21T02:51:31;1.10;;;1.00;;
16531;SDS011;66872;63.142;14.482;2023-11-21T02:53:57;1.07;;;0.97;;
16531;SDS011;66872;63.142;14.482;2023-11-21T02:56:27;1.00;;;0.90;;
16531;SDS011;66872;63.142;14.482;2023-11-21T02:58:55;1.10;;;1.00;;
16531;SDS011;66872;63.142;14.482;2023-11-21T03:01:21;1.07;;;1.00;;
16531;SDS011;66872;63.142;14.482;2023-11-21T03:03:48;1.17;;;1.07;;
16531;SDS011;66872;63.142;14.482;2023-11-21T03:06:16;0.73;;;0.73;;
16531;SDS011;66872;63.142;14.482;2023-11-21T03:08:42;1.00;;;0.90;;
16531;SDS011;66872;63.142;14.482;2023-11-21T03:11:08;0.90;;;0.90;;
16531;SDS011;66872;63.142;14.482;2023-11-21T03:13:34;0.93;;;0.93;;
16531;SDS011;66872;63.142;14.482;2023-11-21T03:16:00;0.93;;;0.90;;
16531;SDS011;66872;63.142;14.482;2023-11-21T03:18:25;0.83;;;0.83;;
16531;SDS011;66872;63.142;14.482;2023-11-21T03:20:52;1.03;;;0.93;;
16531;SDS011;66872;63.142;14.482;2023-11-21T03:23:18;0.90;;;0.90;;
16531;SDS011;66872;63.142;14.482;2023-11-21T03:25:43;0.90;;;0.90;;
16531;SDS011;66872;63.142;14.482;2023-11-21T03:28:09;0.80;;;0.80;;
16531;SDS011;66872;63.142;14.482;2023-11-21T03:30:35;0.77;;;0.77;;
16531;SDS011;66872;63.142;14.482;2023-11-21T03:33:00;1.23;;;1.13;;
16531;SDS011;66872;63.142;14.482;2023-11-21T03:35:26;0.97;;;0.90;;
16531;SDS011;66872;63.142;14.482;2023-11-21T03:37:52;1.37;;;1.27;;
16531;SDS011;66872;63.142;14.482;2023-11-21T03:40:18;0.90;;;0.87;;
16531;SDS011;66872;63.142;14.482;2023-11-21T03:42:46;1.13;;;1.03;;
16531;SDS011;66872;63.142;14.482;2023-11-21T03:45:12;1.07;;;1.00;;
16531;SDS011;66872;63.142;14.482;2023-11-21T03:47:39;1.10;;;1.00;;
16531;SDS011;66872;63.142;14.482;2023-11-21T03:50:06;0.70;;;0.70;;
16531;SDS011;66872;63.142;14.482;2023-11-21T03:52:33;1.10;;;1.00;;
16531;SDS011;66872;63.142;14.482;2023-11-21T03:55:00;1.20;;;1.10;;
16531;SDS011;66872;63.142;14.482;2023-11-21T03:57:29;0.87;;;0.87;;
16531;SDS011;66872;63.142;14.482;2023-11-21T03:59:54;1.27;;;1.00;;
16531;SDS011;66872;63.142;14.482;2023-11-21T04:02:20;1.10;;;1.00;;
16531;SDS011;66872;63.142;14.482;2023-11-21T04:04:45;1.20;;;1.10;;
16531;SDS011;66872;63.142;14.482;2023-11-21T04:07:12;1.17;;;1.00;;
16531;SDS011;66872;63.142;14.482;2023-11-21T04:09:38;1.20;;;1.10;;
16531;SDS011;66872;63.142;14.482;2023-11-21T04:12:05;1.47;;;1.10;;
16531;SDS011;66872;63.142;14.482;2023-11-21T04:14:30;1.10;;;1.00;;
16531;SDS011;66872;63.142;14.482;2023-11-21T04:16:56;1.10;;;1.00;;
16531;SDS011;66872;63.142;14.482;2023-11-21T04:19:22;1.13;;;1.03;;
16531;SDS011;66872;63.142;14.482;2023-11-21T04:21:48;1.10;;;1.00;;
16531;SDS011;66872;63.142;14.482;2023-11-21T04:24:14;1.17;;;1.10;;
16531;SDS011;66872;63.142;14.482;2023-11-21T04:26:40;1.33;;;1.20;;
16531;SDS011;66872;63.142;14.482;2023-11-21T04:29:06;1.23;;;1.13;;
16531;SDS011;66872;63.142;14.482;2023-11-21T04:31:31;1.70;;;1.30;;
16531;SDS011;66872;63.142;14.482;2023-11-21T04:33:57;1.33;;;1.23;;
16531;SDS011;66872;63.142;14.482;2023-11-21T04:36:23;1.30;;;1.20;;
16531;SDS011;66872;63.142;14.482;2023-11-21T04:38:49;1.20;;;1.10;;
16531;SDS011;66872;63.142;14.482;2023-11-21T04:41:14;1.23;;;1.13;;
16531;SDS011;66872;63.142;14.482;2023-11-21T04:43:40;1.20;;;1.10;;
16531;SDS011;66872;63.142;14.482;2023-11-21T04:46:07;1.53;;;1.23;;
16531;SDS011;66872;63.142;14.482;2023-11-21T04:48:33;1.20;;;1.10;;
16531;SDS011;66872;63.142;14.482;2023-11-21T04:50:58;1.30;;;1.20;;
16531;SDS011;66872;63.142;14.482;2023-11-21T04:53:24;1.23;;;1.13;;
16531;SDS011;66872;63.142;14.482;2023-11-21T04:55:49;1.30;;;1.20;;
16531;SDS011;66872;63.142;14.482;2023-11-21T04:58:15;1.37;;;1.20;;
16531;SDS011;66872;63.142;14.482;2023-11-21T05:00:41;1.20;;;1.10;;
16531;SDS011;66872;63.142;14.482;2023-11-21T05:03:06;1.30;;;1.20;;
16531;SDS011;66872;63.142;14.482;2023-11-21T05:05:32;1.20;;;1.10;;
16531;SDS011;66872;63.142;14.482;2023-11-21T05:08:01;1.10;;;1.00;;
16531;SDS011;66872;63.142;14.482;2023-11-21T05:10:28;1.13;;;1.03;;
16531;SDS011;66872;63.142;14.482;2023-11-21T05:12:54;1.57;;;1.30;;
16531;SDS011;66872;63.142;14.482;2023-11-21T05:15:20;1.37;;;1.20;;
16531;SDS011;66872;63.142;14.482;2023-11-21T05:17:46;1.13;;;1.07;;
16531;SDS011;66872;63.142;14.482;2023-11-21T05:20:17;1.40;;;1.30;;
16531;SDS011;66872;63.142;14.482;2023-11-21T05:22:45;1.40;;;1.30;;
16531;SDS011;66872;63.142;14.482;2023-11-21T05:25:15;1.30;;;1.20;;
16531;SDS011;66872;63.142;14.482;2023-11-21T05:27:43;1.50;;;1.40;;
16531;SDS011;66872;63.142;14.482;2023-11-21T05:30:09;1.20;;;1.10;;
16531;SDS011;66872;63.142;14.482;2023-11-21T05:32:37;1.30;;;1.20;;
16531;SDS011;66872;63.142;14.482;2023-11-21T05:35:03;1.40;;;1.30;;
16531;SDS011;66872;63.142;14.482;2023-11-21T05:37:34;1.40;;;1.30;;
16531;SDS011;66872;63.142;14.482;2023-11-21T05:40:00;1.30;;;1.20;;
16531;SDS011;66872;63.142;14.482;2023-11-21T05:42:31;1.07;;;1.03;;
16531;SDS011;66872;63.142;14.482;2023-11-21T05:44:57;1.40;;;1.30;;
16531;SDS011;66872;63.142;14.482;2023-11-21T05:47:42;1.43;;;1.33;;
16531;SDS011;66872;63.142;14.482;2023-11-21T05:50:09;1.30;;;1.20;;
16531;SDS011;66872;63.142;14.482;2023-11-21T05:52:37;1.33;;;1.23;;
16531;SDS011;66872;63.142;14.482;2023-11-21T05:55:05;1.20;;;1.10;;
16531;SDS011;66872;63.142;14.482;2023-11-21T05:57:32;1.20;;;1.10;;
16531;SDS011;66872;63.142;14.482;2023-11-21T06:00:01;1.30;;;1.20;;
16531;SDS011;66872;63.142;14.482;2023-11-21T06:02:40;1.30;;;1.20;;
16531;SDS011;66872;63.142;14.482;2023-11-21T06:05:06;1.23;;;1.13;;
16531;SDS011;66872;63.142;14.482;2023-11-21T06:07:33;1.20;;;1.10;;
16531;SDS011;66872;63.142;14.482;2023-11-21T06:09:59;1.20;;;1.10;;
16531;SDS011;66872;63.142;14.482;2023-11-21T06:12:24;1.17;;;1.07;;
16531;SDS011;66872;63.142;14.482;2023-11-21T06:14:50;1.43;;;1.20;;
16531;SDS011;66872;63.142;14.482;2023-11-21T06:17:16;1.80;;;1.50;;
16531;SDS011;66872;63.142;14.482;2023-11-21T06:19:42;1.43;;;1.20;;
16531;SDS011;66872;63.142;14.482;2023-11-21T06:22:10;1.40;;;1.30;;
16531;SDS011;66872;63.142;14.482;2023-11-21T06:24:36;1.50;;;1.30;;
16531;SDS011;66872;63.142;14.482;2023-11-21T06:27:03;1.40;;;1.20;;
16531;SDS011;66872;63.142;14.482;2023-11-21T06:29:30;1.40;;;1.30;;
16531;SDS011;66872;63.142;14.482;2023-11-21T06:31:56;1.27;;;1.17;;
16531;SDS011;66872;63.142;14.482;2023-11-21T06:34:23;1.33;;;1.23;;
16531;SDS011;66872;63.142;14.482;2023-11-21T06:36:49;1.37;;;1.27;;
16531;SDS011;66872;63.142;14.482;2023-11-21T06:39:14;1.40;;;1.30;;
16531;SDS011;66872;63.142;14.482;2023-11-21T06:41:42;1.30;;;1.20;;
16531;SDS011;66872;63.142;14.482;2023-11-21T06:44:08;1.40;;;1.30;;
16531;SDS011;66872;63.142;14.482;2023-11-21T06:46:33;1.23;;;1.13;;
16531;SDS011;66872;63.142;14.482;2023-11-21T06:48:59;1.67;;;1.57;;
16531;SDS011;66872;63.142;14.482;2023-11-21T06:51:25;1.40;;;1.30;;
16531;SDS011;66872;63.142;14.482;2023-11-21T06:53:50;1.40;;;1.30;;
16531;SDS011;66872;63.142;14.482;2023-11-21T06:56:16;1.43;;;1.33;;
16531;SDS011;66872;63.142;14.482;2023-11-21T06:58:43;1.30;;;1.20;;
16531;SDS011;66872;63.142;14.482;2023-11-21T07:01:11;1.40;;;1.30;;
16531;SDS011;66872;63.142;14.482;2023-11-21T07:03:37;1.27;;;1.17;;
16531;SDS011;66872;63.142;14.482;2023-11-21T07:06:03;1.07;;;1.00;;
16531;SDS011;66872;63.142;14.482;2023-11-21T07:08:29;1.10;;;1.00;;
16531;SDS011;66872;63.142;14.482;2023-11-21T07:10:55;1.47;;;1.37;;
16531;SDS011;66872;63.142;14.482;2023-11-21T07:13:20;1.33;;;1.20;;
16531;SDS011;66872;63.142;14.482;2023-11-21T07:15:46;1.40;;;1.30;;
16531;SDS011;66872;63.142;14.482;2023-11-21T07:18:13;1.20;;;1.10;;
16531;SDS011;66872;63.142;14.482;2023-11-21T07:20:38;1.47;;;1.37;;
16531;SDS011;66872;63.142;14.482;2023-11-21T07:23:04;1.30;;;1.20;;
16531;SDS011;66872;63.142;14.482;2023-11-21T07:25:31;1.20;;;1.10;;
16531;SDS011;66872;63.142;14.482;2023-11-21T07:27:58;1.30;;;1.20;;
16531;SDS011;66872;63.142;14.482;2023-11-21T07:30:24;1.40;;;1.30;;
16531;SDS011;66872;63.142;14.482;2023-11-21T07:32:50;1.20;;;1.10;;
16531;SDS011;66872;63.142;14.482;2023-11-21T07:35:15;1.57;;;1.40;;
16531;SDS011;66872;63.142;14.482;2023-11-21T07:37:41;1.43;;;1.33;;
16531;SDS011;66872;63.142;14.482;2023-11-21T07:40:08;1.40;;;1.30;;
16531;SDS011;66872;63.142;14.482;2023-11-21T07:42:36;1.20;;;1.10;;
16531;SDS011;66872;63.142;14.482;2023-11-21T07:45:02;1.30;;;1.20;;
16531;SDS011;66872;63.142;14.482;2023-11-21T07:47:29;1.33;;;1.23;;
16531;SDS011;66872;63.142;14.482;2023-11-21T07:49:54;1.30;;;1.20;;
16531;SDS011;66872;63.142;14.482;2023-11-21T07:52:23;1.30;;;1.20;;
16531;SDS011;66872;63.142;14.482;2023-11-21T07:54:49;1.20;;;1.10;;
16531;SDS011;66872;63.142;14.482;2023-11-21T07:57:15;1.20;;;1.10;;
16531;SDS011;66872;63.142;14.482;2023-11-21T07:59:41;1.20;;;1.10;;
16531;SDS011;66872;63.142;14.482;2023-11-21T08:02:07;1.20;;;1.10;;
16531;SDS011;66872;63.142;14.482;2023-11-21T08:04:33;1.03;;;1.00;;
16531;SDS011;66872;63.142;14.482;2023-11-21T08:07:00;1.27;;;1.17;;
16531;SDS011;66872;63.142;14.482;2023-11-21T08:09:26;1.20;;;1.07;;
16531;SDS011;66872;63.142;14.482;2023-11-21T08:11:52;1.37;;;1.27;;
16531;SDS011;66872;63.142;14.482;2023-11-21T08:14:18;1.33;;;1.23;;
16531;SDS011;66872;63.142;14.482;2023-11-21T08:16:45;1.20;;;1.10;;
16531;SDS011;66872;63.142;14.482;2023-11-21T08:19:11;1.30;;;1.20;;
16531;SDS011;66872;63.142;14.482;2023-11-21T08:21:36;1.30;;;1.20;;
16531;SDS011;66872;63.142;14.482;2023-11-21T08:24:04;1.13;;;1.07;;
16531;SDS011;66872;63.142;14.482;2023-11-21T08:26:30;1.50;;;1.40;;
16531;SDS011;66872;63.142;14.482;2023-11-21T08:28:56;1.27;;;1.17;;
16531;SDS011;66872;63.142;14.482;2023-11-21T08:31:25;1.40;;;1.30;;
16531;SDS011;66872;63.142;14.482;2023-11-21T08:33:51;1.20;;;1.10;;
16531;SDS011;66872;63.142;14.482;2023-11-21T08:36:20;1.33;;;1.23;;
16531;SDS011;66872;63.142;14.482;2023-11-21T08:38:50;1.20;;;1.10;;
16531;SDS011;66872;63.142;14.482;2023-11-21T08:41:17;1.20;;;1.10;;
16531;SDS011;66872;63.142;14.482;2023-11-21T08:43:47;1.30;;;1.20;;
16531;SDS011;66872;63.142;14.482;2023-11-21T08:46:13;1.30;;;1.20;;
16531;SDS011;66872;63.142;14.482;2023-11-21T08:48:40;1.23;;;1.13;;
16531;SDS011;66872;63.142;14.482;2023-11-21T08:51:06;1.23;;;1.13;;
16531;SDS011;66872;63.142;14.482;2023-11-21T08:53:34;1.10;;;1.00;;
16531;SDS011;66872;63.142;14.482;2023-11-21T08:56:00;1.40;;;1.30;;
16531;SDS011;66872;63.142;14.482;2023-11-21T08:58:26;1.50;;;1.30;;
16531;SDS011;66872;63.142;14.482;2023-11-21T09:00:52;1.40;;;1.20;;
16531;SDS011;66872;63.142;14.482;2023-11-21T09:03:18;1.30;;;1.20;;
16531;SDS011;66872;63.142;14.482;2023-11-21T09:05:44;1.30;;;1.20;;
16531;SDS011;66872;63.142;14.482;2023-11-21T09:08:09;1.30;;;1.20;;
16531;SDS011;66872;63.142;14.482;2023-11-21T09:10:35;1.37;;;1.27;;
16531;SDS011;66872;63.142;14.482;2023-11-21T09:13:01;1.30;;;1.20;;
16531;SDS011;66872;63.142;14.482;2023-11-21T09:15:27;1.17;;;1.07;;
16531;SDS011;66872;63.142;14.482;2023-11-21T09:17:53;1.30;;;1.20;;
16531;SDS011;66872;63.142;14.482;2023-11-21T09:20:19;1.17;;;1.07;;
16531;SDS011;66872;63.142;14.482;2023-11-21T09:22:47;1.33;;;1.23;;
16531;SDS011;66872;63.142;14.482;2023-11-21T09:25:13;1.50;;;1.40;;
16531;SDS011;66872;63.142;14.482;2023-11-21T09:27:39;1.20;;;1.10;;
16531;SDS011;66872;63.142;14.482;2023-11-21T09:30:05;1.47;;;1.37;;
16531;SDS011;66872;63.142;14.482;2023-11-21T09:32:34;1.00;;;1.00;;
16531;SDS011;66872;63.142;14.482;2023-11-21T09:35:02;1.73;;;1.50;;
16531;SDS011;66872;63.142;14.482;2023-11-21T09:37:33;1.20;;;1.10;;
16531;SDS011;66872;63.142;14.482;2023-11-21T09:39:58;1.40;;;1.30;;
16531;SDS011;66872;63.142;14.482;2023-11-21T09:42:32;1.50;;;1.30;;
16531;SDS011;66872;63.142;14.482;2023-11-21T09:45:24;1.33;;;1.23;;
16531;SDS011;66872;63.142;14.482;2023-11-21T09:47:51;1.30;;;1.20;;
16531;SDS011;66872;63.142;14.482;2023-11-21T09:50:19;1.20;;;1.10;;
16531;SDS011;66872;63.142;14.482;2023-11-21T09:55:16;1.30;;;1.20;;
16531;SDS011;66872;63.142;14.482;2023-11-21T09:57:45;1.20;;;1.10;;
16531;SDS011;66872;63.142;14.482;2023-11-21T10:00:13;1.13;;;1.07;;
16531;SDS011;66872;63.142;14.482;2023-11-21T10:02:42;1.30;;;1.20;;
16531;SDS011;66872;63.142;14.482;2023-11-21T10:05:09;1.23;;;1.13;;
16531;SDS011;66872;63.142;14.482;2023-11-21T10:07:36;1.13;;;1.03;;
16531;SDS011;66872;63.142;14.482;2023-11-21T10:10:04;1.30;;;1.20;;
16531;SDS011;66872;63.142;14.482;2023-11-21T10:12:30;1.20;;;1.10;;
16531;SDS011;66872;63.142;14.482;2023-11-21T10:14:57;2.03;;;1.20;;
16531;SDS011;66872;63.142;14.482;2023-11-21T10:17:25;0.97;;;0.93;;
16531;SDS011;66872;63.142;14.482;2023-11-21T10:19:55;1.40;;;1.30;;
16531;SDS011;66872;63.142;14.482;2023-11-21T10:22:22;1.27;;;1.17;;
16531;SDS011;66872;63.142;14.482;2023-11-21T10:24:49;1.37;;;1.27;;
16531;SDS011;66872;63.142;14.482;2023-11-21T10:27:14;1.13;;;1.03;;
16531;SDS011;66872;63.142;14.482;2023-11-21T10:29:40;1.20;;;1.10;;
16531;SDS011;66872;63.142;14.482;2023-11-21T10:32:06;1.27;;;1.17;;
16531;SDS011;66872;63.142;14.482;2023-11-21T10:34:32;1.30;;;1.20;;
16531;SDS011;66872;63.142;14.482;2023-11-21T10:36:59;1.50;;;1.20;;
16531;SDS011;66872;63.142;14.482;2023-11-21T10:39:40;1.00;;;1.00;;
16531;SDS011;66872;63.142;14.482;2023-11-21T10:42:09;1.47;;;1.37;;
16531;SDS011;66872;63.142;14.482;2023-11-21T10:44:35;1.27;;;1.17;;
16531;SDS011;66872;63.142;14.482;2023-11-21T10:47:00;1.30;;;1.13;;
16531;SDS011;66872;63.142;14.482;2023-11-21T10:49:27;1.30;;;1.20;;
16531;SDS011;66872;63.142;14.482;2023-11-21T10:51:53;1.20;;;1.10;;
16531;SDS011;66872;63.142;14.482;2023-11-21T10:54:19;1.20;;;1.10;;
16531;SDS011;66872;63.142;14.482;2023-11-21T10:56:46;1.20;;;1.10;;
16531;SDS011;66872;63.142;14.482;2023-11-21T10:59:16;1.40;;;1.30;;
16531;SDS011;66872;63.142;14.482;2023-11-21T11:01:45;1.30;;;1.20;;
16531;SDS011;66872;63.142;14.482;2023-11-21T11:04:11;1.13;;;1.10;;
16531;SDS011;66872;63.142;14.482;2023-11-21T11:06:45;1.33;;;1.23;;
16531;SDS011;66872;63.142;14.482;2023-11-21T11:09:16;1.30;;;1.20;;
16531;SDS011;66872;63.142;14.482;2023-11-21T11:11:43;1.27;;;1.17;;
16531;SDS011;66872;63.142;14.482;2023-11-21T11:14:12;1.00;;;1.00;;
16531;SDS011;66872;63.142;14.482;2023-11-21T11:16:39;1.30;;;1.20;;
16531;SDS011;66872;63.142;14.482;2023-11-21T11:19:08;1.30;;;1.20;;
16531;SDS011;66872;63.142;14.482;2023-11-21T11:24:49;1.40;;;1.30;;
16531;SDS011;66872;63.142;14.482;2023-11-21T11:38:18;0.90;;;0.90;;
16531;SDS011;66872;63.142;14.482;2023-11-21T11:40:48;1.00;;;1.00;;
16531;SDS011;66872;63.142;14.482;2023-11-21T11:43:27;0.90;;;0.90;;
16531;SDS011;66872;63.142;14.482;2023-11-21T11:45:57;1.30;;;1.20;;
16531;SDS011;66872;63.142;14.482;2023-11-21T11:48:24;1.20;;;1.10;;
16531;SDS011;66872;63.142;14.482;2023-11-21T11:51:02;1.00;;;1.00;;
16531;SDS011;66872;63.142;14.482;2023-11-21T11:53:36;1.00;;;1.00;;
16531;SDS011;66872;63.142;14.482;2023-11-21T11:58:56;1.30;;;1.20;;
16531;SDS011;66872;63.142;14.482;2023-11-21T12:01:24;1.20;;;1.10;;
16531;SDS011;66872;63.142;14.482;2023-11-21T12:07:02;1.10;;;1.00;;
16531;SDS011;66872;63.142;14.482;2023-11-21T12:09:28;1.03;;;1.00;;
16531;SDS011;66872;63.142;14.482;2023-11-21T12:11:56;1.10;;;1.00;;
16531;SDS011;66872;63.142;14.482;2023-11-21T12:14:22;1.10;;;1.00;;
16531;SDS011;66872;63.142;14.482;2023-11-21T12:16:48;1.20;;;1.10;;
16531;SDS011;66872;63.142;14.482;2023-11-21T12:19:14;1.20;;;1.10;;
16531;SDS011;66872;63.142;14.482;2023-11-21T12:21:40;1.23;;;1.13;;
16531;SDS011;66872;63.142;14.482;2023-11-21T12:24:06;1.10;;;1.00;;
16531;SDS011;66872;63.142;14.482;2023-11-21T12:26:34;1.20;;;1.10;;
16531;SDS011;66872;63.142;14.482;2023-11-21T12:29:01;1.20;;;1.10;;
16531;SDS011;66872;63.142;14.482;2023-11-21T12:31:29;0.97;;;0.97;;
16531;SDS011;66872;63.142;14.482;2023-11-21T12:33:55;0.90;;;0.90;;
16531;SDS011;66872;63.142;14.482;2023-11-21T12:36:22;1.30;;;1.20;;
16531;SDS011;66872;63.142;14.482;2023-11-21T12:38:49;1.37;;;1.20;;
16531;SDS011;66872;63.142;14.482;2023-11-21T12:41:15;1.20;;;1.10;;
16531;SDS011;66872;63.142;14.482;2023-11-21T12:43:46;1.30;;;1.20;;
16531;SDS011;66872;63.142;14.482;2023-11-21T12:46:12;1.13;;;1.10;;
16531;SDS011;66872;63.142;14.482;2023-11-21T12:48:39;1.13;;;1.03;;
16531;SDS011;66872;63.142;14.482;2023-11-21T12:51:10;1.20;;;1.10;;
16531;SDS011;66872;63.142;14.482;2023-11-21T12:53:37;1.20;;;1.10;;
16531;SDS011;66872;63.142;14.482;2023-11-21T12:56:12;1.20;;;1.10;;
16531;SDS011;66872;63.142;14.482;2023-11-21T12:58:43;1.20;;;1.10;;
16531;SDS011;66872;63.142;14.482;2023-11-21T13:01:12;1.20;;;1.10;;
16531;SDS011;66872;63.142;14.482;2023-11-21T13:03:43;1.13;;;1.03;;
16531;SDS011;66872;63.142;14.482;2023-11-21T13:06:10;1.20;;;1.10;;
16531;SDS011;66872;63.142;14.482;2023-11-21T13:08:37;1.10;;;1.00;;
16531;SDS011;66872;63.142;14.482;2023-11-21T13:11:04;0.90;;;0.90;;
16531;SDS011;66872;63.142;14.482;2023-11-21T13:13:31;1.10;;;1.07;;
16531;SDS011;66872;63.142;14.482;2023-11-21T13:15:59;1.03;;;0.97;;
16531;SDS011;66872;63.142;14.482;2023-11-21T13:18:26;1.10;;;1.10;;
16531;SDS011;66872;63.142;14.482;2023-11-21T13:20:53;1.10;;;1.00;;
16531;SDS011;66872;63.142;14.482;2023-11-21T13:23:20;1.10;;;1.00;;
16531;SDS011;66872;63.142;14.482;2023-11-21T13:25:47;1.00;;;1.00;;
16531;SDS011;66872;63.142;14.482;2023-11-21T13:28:14;1.20;;;1.10;;
16531;SDS011;66872;63.142;14.482;2023-11-21T13:30:47;1.00;;;1.00;;
16531;SDS011;66872;63.142;14.482;2023-11-21T13:33:13;1.23;;;1.13;;
16531;SDS011;66872;63.142;14.482;2023-11-21T13:35:42;1.23;;;1.13;;
16531;SDS011;66872;63.142;14.482;2023-11-21T13:38:13;1.20;;;1.10;;
16531;SDS011;66872;63.142;14.482;2023-11-21T13:40:42;1.43;;;1.17;;
16531;SDS011;66872;63.142;14.482;2023-11-21T13:43:14;1.23;;;1.13;;
16531;SDS011;66872;63.142;14.482;2023-11-21T13:45:42;1.30;;;1.20;;
16531;SDS011;66872;63.142;14.482;2023-11-21T13:48:09;1.20;;;1.10;;
16531;SDS011;66872;63.142;14.482;2023-11-21T13:50:38;1.30;;;1.20;;
16531;SDS011;66872;63.142;14.482;2023-11-21T13:53:33;1.40;;;1.10;;
16531;SDS011;66872;63.142;14.482;2023-11-21T13:56:02;1.30;;;1.20;;
16531;SDS011;66872;63.142;14.482;2023-11-21T13:58:28;1.17;;;1.07;;
16531;SDS011;66872;63.142;14.482;2023-11-21T14:01:10;1.30;;;1.20;;
16531;SDS011;66872;63.142;14.482;2023-11-21T14:04:02;1.10;;;1.00;;
16531;SDS011;66872;63.142;14.482;2023-11-21T14:06:40;1.07;;;1.07;;
16531;SDS011;66872;63.142;14.482;2023-11-21T14:09:13;1.40;;;1.30;;
16531;SDS011;66872;63.142;14.482;2023-11-21T14:11:47;1.10;;;1.00;;
16531;SDS011;66872;63.142;14.482;2023-11-21T14:14:17;1.20;;;1.10;;
16531;SDS011;66872;63.142;14.482;2023-11-21T14:16:44;1.20;;;1.10;;
16531;SDS011;66872;63.142;14.482;2023-11-21T14:19:10;1.13;;;1.03;;
16531;SDS011;66872;63.142;14.482;2023-11-21T14:21:42;1.30;;;1.20;;
16531;SDS011;66872;63.142;14.482;2023-11-21T14:24:12;1.43;;;1.00;;
16531;SDS011;66872;63.142;14.482;2023-11-21T14:26:41;2.53;;;1.07;;
16531;SDS011;66872;63.142;14.482;2023-11-21T14:29:08;1.20;;;1.10;;
16531;SDS011;66872;63.142;14.482;2023-11-21T14:31:34;1.27;;;1.17;;
16531;SDS011;66872;63.142;14.482;2023-11-21T14:34:00;14.57;;;3.33;;
16531;SDS011;66872;63.142;14.482;2023-11-21T14:36:31;12.23;;;2.77;;
16531;SDS011;66872;63.142;14.482;2023-11-21T14:38:57;12.07;;;3.20;;
16531;SDS011;66872;63.142;14.482;2023-11-21T14:41:22;13.20;;;3.07;;
16531;SDS011;66872;63.142;14.482;2023-11-21T14:43:53;13.57;;;4.30;;
16531;SDS011;66872;63.142;14.482;2023-11-21T14:46:20;19.43;;;4.70;;
16531;SDS011;66872;63.142;14.482;2023-11-21T14:48:46;12.47;;;3.90;;
16531;SDS011;66872;63.142;14.482;2023-11-21T14:51:25;11.57;;;4.20;;
16531;SDS011;66872;63.142;14.482;2023-11-21T14:53:59;16.00;;;3.97;;
16531;SDS011;66872;63.142;14.482;2023-11-21T14:56:31;16.40;;;4.40;;